James Turecamo — WDC7565 — position and weather

sailwx.info

Track history (hours):
 
Tides and Currents Weather Stations Pressure Air Temp Water Temp Dewpoint Dewpoint Depression Visibility Wind Speed Wind Dir Waves Ship Positions

James Turecamo

Owner: Moran Towing Corporation, New Canaan, CT. More information available from US FCC via Universal Licensing System and Coast Guard Vessel Documentation Center.

Last reported at 2017-Apr-25 16:22 UTC. Time now 2017-Apr-25 16:32 UTC.
Position N 40°38' W 074°08'.

Length 30 m; draft 4.2 m.

Type: Tug. MMSI: 367073380.

Date/timePositionNaut miles runAvg speedWind from/ knotsBaromVisibWave heightAir tempDewpointWater temp
2017-Apr-25 16:22N 40°38' W 074°08'3 8.8
2017-Apr-25 16:01N 40°39' W 074°04'1 1.1
2017-Apr-25 15:31N 40°39' W 074°03'0 0.1
2017-Apr-25 15:01N 40°39' W 074°03'0 0.0
2017-Apr-25 14:30N 40°39' W 074°03'4 2.7
2017-Apr-25 13:09N 40°38' W 074°08'0 0.0
2017-Apr-25 09:40N 40°38' W 074°08'0 1.9
2017-Apr-25 09:30N 40°39' W 074°08'2 4.1
2017-Apr-25 09:01N 40°41' W 074°08'1 1.8
2017-Apr-25 08:30N 40°41' W 074°09'1 1.8
2017-Apr-25 08:00N 40°41' W 074°08'0 0.3
2017-Apr-25 07:29N 40°41' W 074°08'1 1.9
2017-Apr-25 07:00N 40°41' W 074°08'2 4.0
2017-Apr-25 06:30N 40°39' W 074°08'0 0.2
2017-Apr-25 05:51N 40°38' W 074°08'0 0.0
2017-Apr-25 05:17N 40°38' W 074°08'0 0.0
2017-Apr-25 04:31N 40°38' W 074°08'0 0.4
2017-Apr-25 04:30N 40°38' W 074°08'0 0.0
2017-Apr-25 04:00N 40°38' W 074°08'0 0.0
2017-Apr-25 03:30N 40°38' W 074°08'0 0.0
2017-Apr-25 02:56N 40°38' W 074°08'0 0.0
2017-Apr-25 02:12N 40°38' W 074°08'0 0.0
2017-Apr-25 02:00N 40°38' W 074°08'0 0.0
2017-Apr-25 01:19N 40°38' W 074°08'0 0.0
2017-Apr-25 01:01N 40°38' W 074°08'0 0.0
2017-Apr-25 00:12N 40°38' W 074°08'0 0.0
2017-Apr-25 00:00N 40°38' W 074°08'0 0.0
2017-Apr-24 22:52N 40°38' W 074°08'0 0.0
2017-Apr-24 22:30N 40°38' W 074°08'0 0.0
2017-Apr-24 22:00N 40°38' W 074°08'0 0.0
2017-Apr-24 21:22N 40°38' W 074°08'0 0.0
2017-Apr-24 21:00N 40°38' W 074°08'0 0.0
2017-Apr-24 20:17N 40°38' W 074°08'0 0.0
2017-Apr-24 20:00N 40°38' W 074°08'0 0.0
2017-Apr-24 19:31N 40°38' W 074°08'0 0.0
2017-Apr-24 18:49N 40°38' W 074°08'0 0.1
2017-Apr-24 18:24N 40°38' W 074°08'4 9.5
2017-Apr-24 18:01N 40°39' W 074°03'0 0.0
2017-Apr-24 17:31N 40°39' W 074°03'0 0.0
2017-Apr-24 17:00N 40°39' W 074°03'0 0.0
2017-Apr-24 16:31N 40°39' W 074°03'0 0.0
2017-Apr-24 16:01N 40°39' W 074°03'0 0.0
2017-Apr-24 15:31N 40°39' W 074°03'2 3.9
2017-Apr-24 15:01N 40°39' W 074°05'2 1.3
2017-Apr-24 13:39N 40°38' W 074°08'0 0.0
2017-Apr-24 13:30N 40°38' W 074°08'0 0.0
2017-Apr-24 12:59N 40°38' W 074°08'0 0.0
2017-Apr-24 12:30N 40°38' W 074°08'0 0.0
2017-Apr-24 12:00N 40°38' W 074°08'0 0.0
2017-Apr-24 11:20N 40°38' W 074°08'0 0.0
2017-Apr-24 11:00N 40°38' W 074°08'0 0.0
2017-Apr-24 10:03N 40°38' W 074°08'0 0.1
2017-Apr-24 09:58N 40°38' W 074°08'0 0.0
2017-Apr-24 09:30N 40°38' W 074°08'3 6.3
2017-Apr-24 09:00N 40°38' W 074°04'1 2.2
2017-Apr-24 08:30N 40°37' W 074°03'1 2.7
2017-Apr-24 08:01N 40°39' W 074°04'3 5.4
2017-Apr-24 07:27N 40°38' W 074°08'0 0.0
2017-Apr-24 06:49N 40°38' W 074°08'0 0.0
2017-Apr-24 06:21N 40°38' W 074°08'0 0.0
2017-Apr-24 05:54N 40°38' W 074°08'0 0.0
2017-Apr-24 05:30N 40°38' W 074°08'0 0.0
2017-Apr-24 04:58N 40°38' W 074°08'0 0.0
2017-Apr-24 04:30N 40°38' W 074°08'0 0.0
2017-Apr-24 04:00N 40°38' W 074°08'0 0.0
2017-Apr-24 03:30N 40°38' W 074°08'0 0.0
2017-Apr-24 03:00N 40°38' W 074°08'0 0.0
2017-Apr-24 02:29N 40°38' W 074°08'3 6.4
2017-Apr-24 02:00N 40°40' W 074°04'1 2.8
2017-Apr-24 01:31N 40°41' W 074°04'0 0.0
2017-Apr-24 01:01N 40°41' W 074°04'1 1.8
2017-Apr-24 00:31N 40°40' W 074°03'2 3.8
2017-Apr-24 00:00N 40°39' W 074°03'3 6.8
2017-Apr-23 23:30N 40°38' W 074°08'0 0.0
2017-Apr-23 23:00N 40°38' W 074°08'0 0.0
2017-Apr-23 22:30N 40°38' W 074°08'0 0.0
2017-Apr-23 22:00N 40°38' W 074°08'0 0.1
2017-Apr-23 21:30N 40°38' W 074°08'0 0.0
2017-Apr-23 21:00N 40°38' W 074°08'0 0.0
2017-Apr-23 20:26N 40°38' W 074°08'0 0.0
2017-Apr-23 19:58N 40°38' W 074°08'0 0.0
2017-Apr-23 19:29N 40°38' W 074°08'0 0.0
2017-Apr-23 19:00N 40°38' W 074°08'0 0.0
2017-Apr-23 18:30N 40°38' W 074°08'0 0.0
2017-Apr-23 17:58N 40°38' W 074°08'0 0.0
2017-Apr-23 17:29N 40°38' W 074°08'0 0.0
2017-Apr-23 16:59N 40°38' W 074°08'0 0.0
2017-Apr-23 16:30N 40°38' W 074°08'0 0.0
2017-Apr-23 16:00N 40°38' W 074°08'0 0.0
2017-Apr-23 15:29N 40°38' W 074°08'0 0.0
2017-Apr-23 14:56N 40°38' W 074°08'0 0.0
2017-Apr-23 13:56N 40°38' W 074°08'0 0.0
2017-Apr-23 13:30N 40°38' W 074°08'0 0.0
2017-Apr-23 13:00N 40°38' W 074°08'0 0.0
2017-Apr-23 12:24N 40°38' W 074°08'0 0.0
2017-Apr-23 12:00N 40°38' W 074°08'0 0.0
2017-Apr-23 10:53N 40°38' W 074°08'0 0.0
2017-Apr-23 08:34N 40°38' W 074°08'0 0.0
2017-Apr-23 08:19N 40°38' W 074°08'0 0.0
2017-Apr-23 07:57N 40°38' W 074°08'0 0.0
2017-Apr-23 07:30N 40°38' W 074°08'0 0.0
2017-Apr-23 07:00N 40°38' W 074°08'0 0.0
2017-Apr-23 06:23N 40°38' W 074°08'0 0.0
2017-Apr-23 06:00N 40°38' W 074°08'0 0.0
2017-Apr-23 05:26N 40°38' W 074°08'0 0.0
2017-Apr-23 05:00N 40°38' W 074°08'0 0.0
2017-Apr-23 04:30N 40°38' W 074°08'0 0.0
2017-Apr-23 03:58N 40°38' W 074°08'0 0.0
2017-Apr-23 03:29N 40°38' W 074°08'0 0.0
2017-Apr-23 03:00N 40°38' W 074°08'0 0.0
2017-Apr-23 02:30N 40°38' W 074°08'0 0.0
2017-Apr-23 01:59N 40°38' W 074°08'0 0.0
2017-Apr-23 01:30N 40°38' W 074°08'0 0.0
2017-Apr-23 00:59N 40°38' W 074°08'0 0.0
2017-Apr-23 00:26N 40°38' W 074°08'0 0.0
2017-Apr-22 23:59N 40°38' W 074°08'0 0.0
2017-Apr-22 23:27N 40°38' W 074°08'0 0.0
2017-Apr-22 23:00N 40°38' W 074°08'0 0.0
2017-Apr-22 22:30N 40°38' W 074°08'0 0.0
2017-Apr-22 22:00N 40°38' W 074°08'0 0.0
2017-Apr-22 21:30N 40°38' W 074°08'0 0.0
2017-Apr-22 20:59N 40°38' W 074°08'0 0.0
2017-Apr-22 20:30N 40°38' W 074°08'0 0.0
2017-Apr-22 19:59N 40°38' W 074°08'0 0.0
2017-Apr-22 19:30N 40°38' W 074°08'0 0.0
2017-Apr-22 19:00N 40°38' W 074°08'1 1.8
2017-Apr-22 18:30N 40°39' W 074°09'3 6.2
2017-Apr-22 18:00N 40°42' W 074°08'0 0.2
2017-Apr-22 17:30N 40°42' W 074°08'1 1.7
2017-Apr-22 17:00N 40°41' W 074°08'2 4.5
2017-Apr-22 16:30N 40°39' W 074°07'3 6.3
2017-Apr-22 16:01N 40°38' W 074°03'2 3.2
2017-Apr-22 15:30N 40°39' W 074°05'2 4.3
2017-Apr-22 15:00N 40°38' W 074°08'0 0.0
2017-Apr-22 14:30N 40°38' W 074°08'0 0.0
2017-Apr-22 13:30N 40°38' W 074°08'0 0.0
2017-Apr-22 13:00N 40°38' W 074°08'0 0.0
2017-Apr-22 12:30N 40°38' W 074°08'0 0.0
2017-Apr-22 12:00N 40°38' W 074°08'0 0.0
2017-Apr-22 11:30N 40°38' W 074°08'0 0.0
2017-Apr-22 11:00N 40°38' W 074°08'0 0.0
2017-Apr-22 10:30N 40°38' W 074°08'0 0.0
2017-Apr-22 10:00N 40°38' W 074°08'0 0.0
2017-Apr-22 09:18N 40°38' W 074°08'0 0.0
2017-Apr-22 08:59N 40°38' W 074°08'0 0.0
2017-Apr-22 08:28N 40°38' W 074°08'0 0.0
2017-Apr-22 08:00N 40°38' W 074°08'0 0.0
2017-Apr-22 07:07N 40°38' W 074°08'0 0.0
2017-Apr-22 06:50N 40°38' W 074°08'0 0.0
2017-Apr-22 06:26N 40°38' W 074°08'0 0.0
2017-Apr-22 06:00N 40°38' W 074°08'0 0.0
2017-Apr-22 05:30N 40°38' W 074°08'0 0.0
2017-Apr-22 04:59N 40°38' W 074°08'0 0.0
2017-Apr-22 04:30N 40°38' W 074°08'0 0.0
2017-Apr-22 04:00N 40°38' W 074°08'0 0.0
2017-Apr-22 03:30N 40°38' W 074°08'0 0.0
2017-Apr-22 02:59N 40°38' W 074°08'0 0.0
2017-Apr-22 02:30N 40°38' W 074°08'0 0.0
2017-Apr-22 02:00N 40°38' W 074°08'0 0.0
2017-Apr-22 01:30N 40°38' W 074°08'0 0.0
2017-Apr-22 01:00N 40°38' W 074°08'0 0.0
2017-Apr-22 00:30N 40°38' W 074°08'0 0.0
2017-Apr-22 00:00N 40°38' W 074°08'0 0.0
2017-Apr-21 23:30N 40°38' W 074°08'0 0.0
2017-Apr-21 22:58N 40°38' W 074°08'0 0.0
2017-Apr-21 22:30N 40°38' W 074°08'0 0.0
2017-Apr-21 22:00N 40°38' W 074°08'0 0.0
2017-Apr-21 21:30N 40°38' W 074°08'0 0.0
2017-Apr-21 21:00N 40°38' W 074°08'0 0.0
2017-Apr-21 20:29N 40°38' W 074°08'0 0.0
2017-Apr-21 20:01N 40°38' W 074°08'0 0.0
2017-Apr-21 19:30N 40°38' W 074°08'0 0.0
2017-Apr-21 19:00N 40°38' W 074°08'0 0.0
2017-Apr-21 18:30N 40°38' W 074°08'0 0.0
2017-Apr-21 18:00N 40°38' W 074°08'0 0.0
2017-Apr-21 17:23N 40°38' W 074°08'0 0.0
2017-Apr-21 17:01N 40°38' W 074°08'0 0.0
2017-Apr-21 16:30N 40°38' W 074°08'0 0.0
2017-Apr-21 16:00N 40°38' W 074°08'0 0.0
2017-Apr-21 15:26N 40°38' W 074°08'0 0.0
2017-Apr-21 15:00N 40°38' W 074°08'0 0.0
2017-Apr-21 14:30N 40°38' W 074°08'0 0.0
2017-Apr-21 13:30N 40°38' W 074°08'0 0.0
2017-Apr-21 13:00N 40°38' W 074°08'0 0.0
2017-Apr-21 12:29N 40°38' W 074°08'0 0.0
2017-Apr-21 11:59N 40°38' W 074°08'0 0.0
2017-Apr-21 11:27N 40°38' W 074°08'0 0.0
2017-Apr-21 11:00N 40°38' W 074°08'0 0.0
2017-Apr-21 10:29N 40°38' W 074°08'0 0.0
2017-Apr-21 10:00N 40°38' W 074°08'0 0.0
2017-Apr-21 09:30N 40°38' W 074°08'0 0.0
2017-Apr-21 09:00N 40°38' W 074°08'0 0.0
2017-Apr-21 08:30N 40°38' W 074°08'0 0.0
2017-Apr-21 07:51N 40°38' W 074°08'0 0.0
2017-Apr-21 07:26N 40°38' W 074°08'0 0.0
2017-Apr-21 06:58N 40°38' W 074°08'0 0.0
2017-Apr-21 06:30N 40°38' W 074°08'0 0.0
2017-Apr-21 05:58N 40°38' W 074°08'0 0.0
2017-Apr-21 05:30N 40°38' W 074°08'0 0.0
2017-Apr-21 05:00N 40°38' W 074°08'0 0.0
2017-Apr-21 04:29N 40°38' W 074°08'0 0.0
2017-Apr-21 03:59N 40°38' W 074°08'0 0.0
2017-Apr-21 03:30N 40°38' W 074°08'0 0.0
2017-Apr-21 02:55N 40°38' W 074°08'0 0.0
2017-Apr-21 02:25N 40°38' W 074°08'0 0.0
2017-Apr-21 01:59N 40°38' W 074°08'0 0.0
2017-Apr-21 01:29N 40°38' W 074°08'0 0.0
2017-Apr-21 00:56N 40°38' W 074°08'1 1.3
2017-Apr-21 00:31N 40°39' W 074°09'3 5.0
2017-Apr-21 00:01N 40°41' W 074°08'0 0.7
2017-Apr-20 23:30N 40°41' W 074°09'2 3.3
2017-Apr-20 23:00N 40°39' W 074°09'2 3.8
2017-Apr-20 22:30N 40°39' W 074°06'2 3.5
2017-Apr-20 22:00N 40°39' W 074°04'1 2.7
2017-Apr-20 21:31N 40°40' W 074°03'1 2.5
2017-Apr-20 21:01N 40°41' W 074°04'1 2.9
2017-Apr-20 20:31N 40°40' W 074°04'3 5.7
2017-Apr-20 19:59N 40°38' W 074°08'0 0.0
2017-Apr-20 19:30N 40°38' W 074°08'0 0.0
2017-Apr-20 19:00N 40°38' W 074°08'0 0.0
2017-Apr-20 18:30N 40°38' W 074°08'0 0.0
2017-Apr-20 18:01N 40°38' W 074°08'0 0.0
2017-Apr-20 17:29N 40°38' W 074°08'0 0.0
2017-Apr-20 17:00N 40°38' W 074°08'0 0.0
2017-Apr-20 16:30N 40°38' W 074°08'0 0.0
2017-Apr-20 16:00N 40°38' W 074°08'0 0.0
2017-Apr-20 15:30N 40°38' W 074°08'0 0.0
2017-Apr-20 14:31N 40°38' W 074°08'0 0.0
2017-Apr-20 14:12N 40°38' W 074°08'0 0.0
2017-Apr-20 13:24N 40°38' W 074°08'0 0.0
2017-Apr-20 13:00N 40°38' W 074°08'0 0.0
2017-Apr-20 12:30N 40°38' W 074°08'0 0.0
2017-Apr-20 12:00N 40°38' W 074°08'0 0.0
2017-Apr-20 11:30N 40°38' W 074°08'0 0.0
2017-Apr-20 11:00N 40°38' W 074°08'0 0.0
2017-Apr-20 10:30N 40°38' W 074°08'0 0.0
2017-Apr-20 10:00N 40°38' W 074°08'0 0.0
2017-Apr-20 09:30N 40°38' W 074°08'0 0.0
2017-Apr-20 09:00N 40°38' W 074°08'0 0.0
2017-Apr-20 08:29N 40°38' W 074°08'0 0.0
2017-Apr-20 08:00N 40°38' W 074°08'0 0.0
2017-Apr-20 07:29N 40°38' W 074°08'0 0.0
2017-Apr-20 07:00N 40°38' W 074°08'0 0.0
2017-Apr-20 06:30N 40°38' W 074°08'0 0.0
2017-Apr-20 06:00N 40°38' W 074°08'0 0.0
2017-Apr-20 05:29N 40°38' W 074°08'1 0.8
2017-Apr-20 04:53N 40°38' W 074°08'1 0.1
2017-Apr-19 20:02N 40°38' W 074°08'0 0.0
2017-Apr-19 20:00N 40°38' W 074°08'0 0.0
2017-Apr-19 19:30N 40°38' W 074°08'0 0.0
2017-Apr-19 17:54N 40°38' W 074°08'0 0.0
2017-Apr-19 17:29N 40°38' W 074°08'0 0.0
2017-Apr-19 17:00N 40°38' W 074°08'0 0.0
2017-Apr-19 16:30N 40°38' W 074°08'0 0.0
2017-Apr-19 15:53N 40°38' W 074°08'0 0.0
2017-Apr-19 15:30N 40°38' W 074°08'0 0.0
2017-Apr-19 14:58N 40°38' W 074°08'0 0.0
2017-Apr-19 14:30N 40°38' W 074°08'0 0.0
2017-Apr-19 13:30N 40°38' W 074°08'0 0.0
2017-Apr-19 13:00N 40°38' W 074°08'0 0.0
2017-Apr-19 12:30N 40°38' W 074°08'0 0.0
2017-Apr-19 12:00N 40°38' W 074°08'0 0.0
2017-Apr-19 11:26N 40°38' W 074°08'0 0.0
2017-Apr-19 10:59N 40°38' W 074°08'0 0.0
2017-Apr-19 10:28N 40°38' W 074°08'0 0.0
2017-Apr-19 10:00N 40°38' W 074°08'0 0.0
2017-Apr-19 08:23N 40°38' W 074°08'0 0.0
2017-Apr-19 08:00N 40°38' W 074°08'0 0.0
2017-Apr-19 07:30N 40°38' W 074°08'0 0.0
2017-Apr-19 06:56N 40°38' W 074°08'0 0.0
2017-Apr-19 06:26N 40°38' W 074°08'0 0.0
2017-Apr-19 05:38N 40°38' W 074°08'0 0.0
2017-Apr-19 05:29N 40°38' W 074°08'0 0.0
2017-Apr-19 05:00N 40°38' W 074°08'1 1.4
2017-Apr-19 04:30N 40°39' W 074°07'0 0.0
2017-Apr-19 04:00N 40°39' W 074°07'0 0.9
2017-Apr-19 03:30N 40°39' W 074°06'1 2.0
2017-Apr-19 02:58N 40°38' W 074°08'0 0.0
2017-Apr-19 02:30N 40°38' W 074°08'3 6.9
2017-Apr-19 02:00N 40°42' W 074°09'0 0.1
2017-Apr-19 01:30N 40°42' W 074°09'1 2.2
2017-Apr-19 01:00N 40°41' W 074°08'2 4.5
2017-Apr-19 00:30N 40°39' W 074°09'1 2.2
2017-Apr-19 00:00N 40°38' W 074°08'0 0.0
2017-Apr-18 23:30N 40°38' W 074°08'1 2.1
2017-Apr-18 22:58N 40°39' W 074°09'3 5.5
2017-Apr-18 22:30N 40°41' W 074°08'1 1.6
2017-Apr-18 22:00N 40°42' W 074°09'0 0.1
2017-Apr-18 21:30N 40°42' W 074°09'0 0.1
2017-Apr-18 21:00N 40°42' W 074°09'0 0.3
2017-Apr-18 20:30N 40°42' W 074°08'3 6.6
2017-Apr-18 20:00N 40°38' W 074°08'0 0.0
2017-Apr-18 19:20N 40°38' W 074°08'0 0.0
2017-Apr-18 18:59N 40°38' W 074°08'0 0.1
2017-Apr-18 18:30N 40°38' W 074°08'0 0.0
2017-Apr-18 18:00N 40°38' W 074°08'0 0.0
2017-Apr-18 17:30N 40°38' W 074°08'0 0.0
2017-Apr-18 17:00N 40°38' W 074°08'0 0.0
2017-Apr-18 16:30N 40°38' W 074°08'0 0.0
2017-Apr-18 16:00N 40°38' W 074°08'0 0.0
2017-Apr-18 15:30N 40°38' W 074°08'0 0.0
2017-Apr-18 15:00N 40°38' W 074°08'0 0.0
2017-Apr-18 14:30N 40°38' W 074°08'7 5.8
2017-Apr-18 13:18N 40°33' W 074°14'1 4.2
2017-Apr-18 13:00N 40°32' W 074°15'0 0.0
2017-Apr-18 12:30N 40°32' W 074°15'1 1.4
2017-Apr-18 11:34N 40°33' W 074°14'3 9.2
2017-Apr-18 11:12N 40°37' W 074°12'210.9
2017-Apr-18 11:00N 40°39' W 074°11'4 7.3
2017-Apr-18 10:29N 40°41' W 074°08'0 0.8
2017-Apr-18 10:00N 40°41' W 074°08'3 5.2
2017-Apr-18 09:30N 40°39' W 074°09'2 3.5
2017-Apr-18 09:00N 40°39' W 074°06'3 5.2
2017-Apr-18 08:30N 40°38' W 074°03'4 7.1
2017-Apr-18 08:00N 40°38' W 074°08'0 0.0
2017-Apr-18 07:30N 40°38' W 074°08'0 0.0
2017-Apr-18 07:00N 40°38' W 074°08'0 0.0
2017-Apr-18 06:30N 40°38' W 074°08'0 0.0
2017-Apr-18 06:00N 40°38' W 074°08'1 2.0
2017-Apr-18 05:27N 40°39' W 074°09'2 5.1
2017-Apr-18 05:00N 40°41' W 074°08'1 1.9
2017-Apr-18 04:30N 40°42' W 074°09'0 0.1
2017-Apr-18 04:00N 40°42' W 074°09'0 0.2
2017-Apr-18 03:30N 40°42' W 074°09'0 0.0
2017-Apr-18 03:00N 40°42' W 074°09'0 0.0
2017-Apr-18 02:30N 40°42' W 074°09'0 0.0
2017-Apr-18 02:00N 40°42' W 074°09'4 7.6
2017-Apr-18 01:30N 40°39' W 074°11'1 2.0
2017-Apr-18 01:00N 40°38' W 074°12'1 2.7
2017-Apr-18 00:30N 40°39' W 074°11'2 4.6
2017-Apr-17 23:58N 40°38' W 074°08'0 0.0
2017-Apr-17 23:30N 40°38' W 074°08'0 0.0
2017-Apr-17 23:00N 40°38' W 074°08'0 0.1
2017-Apr-17 22:30N 40°38' W 074°08'0 0.0
2017-Apr-17 22:00N 40°38' W 074°08'0 0.0
2017-Apr-17 21:30N 40°38' W 074°08'0 0.0
2017-Apr-17 20:58N 40°38' W 074°08'0 0.0
2017-Apr-17 20:30N 40°38' W 074°08'0 0.0
2017-Apr-17 20:00N 40°38' W 074°08'0 0.0
2017-Apr-17 19:30N 40°38' W 074°08'0 0.7
2017-Apr-17 19:00N 40°39' W 074°07'0 0.4
2017-Apr-17 18:30N 40°39' W 074°07'0 0.1
2017-Apr-17 18:00N 40°39' W 074°07'0 0.3
2017-Apr-17 17:30N 40°39' W 074°07'1 1.2
2017-Apr-17 16:59N 40°38' W 074°08'0 0.0
2017-Apr-17 16:29N 40°38' W 074°08'0 0.0
2017-Apr-17 15:58N 40°38' W 074°08'0 0.0
2017-Apr-17 15:09N 40°38' W 074°08'0 0.0
2017-Apr-17 15:00N 40°38' W 074°08'0 0.0
2017-Apr-17 13:59N 40°38' W 074°08'0 0.0
2017-Apr-17 13:30N 40°38' W 074°08'0 0.0
2017-Apr-17 13:00N 40°38' W 074°08'0 0.0
2017-Apr-17 12:30N 40°38' W 074°08'0 0.0
2017-Apr-17 11:59N 40°38' W 074°08'3 5.4
2017-Apr-17 11:30N 40°41' W 074°08'1 2.0
2017-Apr-17 11:00N 40°42' W 074°09'1 2.7
2017-Apr-17 10:30N 40°41' W 074°08'2 4.2
2017-Apr-17 10:00N 40°39' W 074°08'0 0.3
2017-Apr-17 09:29N 40°38' W 074°08'0 0.0
2017-Apr-17 08:59N 40°38' W 074°08'0 0.0
2017-Apr-17 08:29N 40°38' W 074°08'0 0.0
2017-Apr-17 07:59N 40°38' W 074°08'0 0.0
2017-Apr-17 07:26N 40°38' W 074°08'0 0.0
2017-Apr-17 06:56N 40°38' W 074°08'0 0.0
2017-Apr-17 05:59N 40°38' W 074°08'0 0.0
2017-Apr-17 05:29N 40°38' W 074°08'0 0.0
2017-Apr-17 04:56N 40°38' W 074°08'0 0.0
2017-Apr-17 04:23N 40°38' W 074°08'0 0.0
2017-Apr-17 03:56N 40°38' W 074°08'0 0.0
2017-Apr-17 01:47N 40°38' W 074°08'0 0.0
2017-Apr-17 01:29N 40°38' W 074°08'0 0.0
2017-Apr-17 00:53N 40°38' W 074°08'0 0.0
2017-Apr-17 00:26N 40°38' W 074°08'0 0.0
2017-Apr-16 23:59N 40°38' W 074°08'0 0.0
2017-Apr-16 23:29N 40°38' W 074°08'0 0.0
2017-Apr-16 22:50N 40°38' W 074°08'0 0.0
2017-Apr-16 22:23N 40°38' W 074°08'0 0.0
2017-Apr-16 21:53N 40°38' W 074°08'0 0.0
2017-Apr-16 21:26N 40°38' W 074°08'0 0.0
2017-Apr-16 20:59N 40°38' W 074°08'0 0.0
2017-Apr-16 20:25N 40°38' W 074°08'0 0.1
2017-Apr-16 20:00N 40°38' W 074°08'0 0.1
2017-Apr-16 19:30N 40°38' W 074°08'0 0.0
2017-Apr-16 18:59N 40°38' W 074°08'0 0.0
2017-Apr-16 18:21N 40°38' W 074°08'0 0.0
2017-Apr-16 17:49N 40°38' W 074°08'0 0.0
2017-Apr-16 17:19N 40°38' W 074°08'0 0.0
2017-Apr-16 13:55N 40°38' W 074°08'0 0.0
2017-Apr-16 13:28N 40°38' W 074°08'0 0.0
2017-Apr-16 12:52N 40°38' W 074°08'0 0.0
2017-Apr-16 12:28N 40°38' W 074°08'0 0.0
2017-Apr-16 11:19N 40°38' W 074°08'0 0.0
2017-Apr-16 10:58N 40°38' W 074°08'0 0.0
2017-Apr-16 10:25N 40°38' W 074°08'0 0.0
2017-Apr-16 09:49N 40°38' W 074°08'0 0.0
2017-Apr-16 09:28N 40°38' W 074°08'0 0.0
2017-Apr-16 08:46N 40°38' W 074°08'0 0.0
2017-Apr-16 08:28N 40°38' W 074°08'0 0.0
2017-Apr-16 07:58N 40°38' W 074°08'0 0.0
2017-Apr-16 07:28N 40°38' W 074°08'0 0.0
2017-Apr-16 06:58N 40°38' W 074°08'0 0.0
2017-Apr-16 06:28N 40°38' W 074°08'0 0.0
2017-Apr-16 05:34N 40°38' W 074°08'0 0.0
2017-Apr-16 05:19N 40°38' W 074°08'0 0.0
2017-Apr-16 04:58N 40°38' W 074°08'0 0.0
2017-Apr-16 04:28N 40°38' W 074°08'0 0.0
2017-Apr-16 03:52N 40°38' W 074°08'0 0.0
2017-Apr-16 02:55N 40°38' W 074°08'0 0.0
2017-Apr-16 02:10N 40°38' W 074°08'0 0.0
2017-Apr-16 01:46N 40°38' W 074°08'0 0.0
2017-Apr-16 01:25N 40°38' W 074°08'0 0.1
2017-Apr-16 00:58N 40°38' W 074°08'0 0.0
2017-Apr-16 00:25N 40°38' W 074°08'0 0.0
2017-Apr-15 23:58N 40°38' W 074°08'0 0.0
2017-Apr-15 22:31N 40°38' W 074°08'0 0.0
2017-Apr-15 21:36N 40°38' W 074°08'0 0.0
2017-Apr-15 21:06N 40°38' W 074°08'0 0.0
2017-Apr-15 20:54N 40°38' W 074°08'0 0.0
2017-Apr-15 20:30N 40°38' W 074°08'0 0.0
2017-Apr-15 20:00N 40°38' W 074°08'0 0.0
2017-Apr-15 19:30N 40°38' W 074°08'1 2.1
2017-Apr-15 19:00N 40°39' W 074°07'3 5.2
2017-Apr-15 18:30N 40°41' W 074°04'0 0.0
2017-Apr-15 18:00N 40°41' W 074°04'1 3.0
2017-Apr-15 17:30N 40°40' W 074°03'2 4.3
2017-Apr-15 17:00N 40°39' W 074°06'  
Track history (hours):
 
Tides and Currents Weather Stations Pressure Air Temp Water Temp Dewpoint Dewpoint Depression Visibility Wind Speed Wind Dir Waves Ship Positions

James Turecamo

Owner: Moran Towing Corporation, New Canaan, CT. More information available from US FCC via Universal Licensing System and Coast Guard Vessel Documentation Center.

Last reported at 2017-Apr-25 16:22 UTC. Time now 2017-Apr-25 16:32 UTC.
Position N 40°38' W 074°08'.

Length 30 m; draft 4.2 m.

Type: Tug. MMSI: 367073380.

Date/timePositionNaut miles runAvg speedWind from/ knotsBaromVisibWave heightAir tempDewpointWater temp
2017-Apr-25 16:22N 40°38' W 074°08'3 8.8
2017-Apr-25 16:01N 40°39' W 074°04'1 1.1
2017-Apr-25 15:31N 40°39' W 074°03'0 0.1
2017-Apr-25 15:01N 40°39' W 074°03'0 0.0
2017-Apr-25 14:30N 40°39' W 074°03'4 2.7
2017-Apr-25 13:09N 40°38' W 074°08'0 0.0
2017-Apr-25 09:40N 40°38' W 074°08'0 1.9
2017-Apr-25 09:30N 40°39' W 074°08'2 4.1
2017-Apr-25 09:01N 40°41' W 074°08'1 1.8
2017-Apr-25 08:30N 40°41' W 074°09'1 1.8
2017-Apr-25 08:00N 40°41' W 074°08'0 0.3
2017-Apr-25 07:29N 40°41' W 074°08'1 1.9
2017-Apr-25 07:00N 40°41' W 074°08'2 4.0
2017-Apr-25 06:30N 40°39' W 074°08'0 0.2
2017-Apr-25 05:51N 40°38' W 074°08'0 0.0
2017-Apr-25 05:17N 40°38' W 074°08'0 0.0
2017-Apr-25 04:31N 40°38' W 074°08'0 0.4
2017-Apr-25 04:30N 40°38' W 074°08'0 0.0
2017-Apr-25 04:00N 40°38' W 074°08'0 0.0
2017-Apr-25 03:30N 40°38' W 074°08'0 0.0
2017-Apr-25 02:56N 40°38' W 074°08'0 0.0
2017-Apr-25 02:12N 40°38' W 074°08'0 0.0
2017-Apr-25 02:00N 40°38' W 074°08'0 0.0
2017-Apr-25 01:19N 40°38' W 074°08'0 0.0
2017-Apr-25 01:01N 40°38' W 074°08'0 0.0
2017-Apr-25 00:12N 40°38' W 074°08'0 0.0
2017-Apr-25 00:00N 40°38' W 074°08'0 0.0
2017-Apr-24 22:52N 40°38' W 074°08'0 0.0
2017-Apr-24 22:30N 40°38' W 074°08'0 0.0
2017-Apr-24 22:00N 40°38' W 074°08'0 0.0
2017-Apr-24 21:22N 40°38' W 074°08'0 0.0
2017-Apr-24 21:00N 40°38' W 074°08'0 0.0
2017-Apr-24 20:17N 40°38' W 074°08'0 0.0
2017-Apr-24 20:00N 40°38' W 074°08'0 0.0
2017-Apr-24 19:31N 40°38' W 074°08'0 0.0
2017-Apr-24 18:49N 40°38' W 074°08'0 0.1
2017-Apr-24 18:24N 40°38' W 074°08'4 9.5
2017-Apr-24 18:01N 40°39' W 074°03'0 0.0
2017-Apr-24 17:31N 40°39' W 074°03'0 0.0
2017-Apr-24 17:00N 40°39' W 074°03'0 0.0
2017-Apr-24 16:31N 40°39' W 074°03'0 0.0
2017-Apr-24 16:01N 40°39' W 074°03'0 0.0
2017-Apr-24 15:31N 40°39' W 074°03'2 3.9
2017-Apr-24 15:01N 40°39' W 074°05'2 1.3
2017-Apr-24 13:39N 40°38' W 074°08'0 0.0
2017-Apr-24 13:30N 40°38' W 074°08'0 0.0
2017-Apr-24 12:59N 40°38' W 074°08'0 0.0
2017-Apr-24 12:30N 40°38' W 074°08'0 0.0
2017-Apr-24 12:00N 40°38' W 074°08'0 0.0
2017-Apr-24 11:20N 40°38' W 074°08'0 0.0
2017-Apr-24 11:00N 40°38' W 074°08'0 0.0
2017-Apr-24 10:03N 40°38' W 074°08'0 0.1
2017-Apr-24 09:58N 40°38' W 074°08'0 0.0
2017-Apr-24 09:30N 40°38' W 074°08'3 6.3
2017-Apr-24 09:00N 40°38' W 074°04'1 2.2
2017-Apr-24 08:30N 40°37' W 074°03'1 2.7
2017-Apr-24 08:01N 40°39' W 074°04'3 5.4
2017-Apr-24 07:27N 40°38' W 074°08'0 0.0
2017-Apr-24 06:49N 40°38' W 074°08'0 0.0
2017-Apr-24 06:21N 40°38' W 074°08'0 0.0
2017-Apr-24 05:54N 40°38' W 074°08'0 0.0
2017-Apr-24 05:30N 40°38' W 074°08'0 0.0
2017-Apr-24 04:58N 40°38' W 074°08'0 0.0
2017-Apr-24 04:30N 40°38' W 074°08'0 0.0
2017-Apr-24 04:00N 40°38' W 074°08'0 0.0
2017-Apr-24 03:30N 40°38' W 074°08'0 0.0
2017-Apr-24 03:00N 40°38' W 074°08'0 0.0
2017-Apr-24 02:29N 40°38' W 074°08'3 6.4
2017-Apr-24 02:00N 40°40' W 074°04'1 2.8
2017-Apr-24 01:31N 40°41' W 074°04'0 0.0
2017-Apr-24 01:01N 40°41' W 074°04'1 1.8
2017-Apr-24 00:31N 40°40' W 074°03'2 3.8
2017-Apr-24 00:00N 40°39' W 074°03'3 6.8
2017-Apr-23 23:30N 40°38' W 074°08'0 0.0
2017-Apr-23 23:00N 40°38' W 074°08'0 0.0
2017-Apr-23 22:30N 40°38' W 074°08'0 0.0
2017-Apr-23 22:00N 40°38' W 074°08'0 0.1
2017-Apr-23 21:30N 40°38' W 074°08'0 0.0
2017-Apr-23 21:00N 40°38' W 074°08'0 0.0
2017-Apr-23 20:26N 40°38' W 074°08'0 0.0
2017-Apr-23 19:58N 40°38' W 074°08'0 0.0
2017-Apr-23 19:29N 40°38' W 074°08'0 0.0
2017-Apr-23 19:00N 40°38' W 074°08'0 0.0
2017-Apr-23 18:30N 40°38' W 074°08'0 0.0
2017-Apr-23 17:58N 40°38' W 074°08'0 0.0
2017-Apr-23 17:29N 40°38' W 074°08'0 0.0
2017-Apr-23 16:59N 40°38' W 074°08'0 0.0
2017-Apr-23 16:30N 40°38' W 074°08'0 0.0
2017-Apr-23 16:00N 40°38' W 074°08'0 0.0
2017-Apr-23 15:29N 40°38' W 074°08'0 0.0
2017-Apr-23 14:56N 40°38' W 074°08'0 0.0
2017-Apr-23 13:56N 40°38' W 074°08'0 0.0
2017-Apr-23 13:30N 40°38' W 074°08'0 0.0
2017-Apr-23 13:00N 40°38' W 074°08'0 0.0
2017-Apr-23 12:24N 40°38' W 074°08'0 0.0
2017-Apr-23 12:00N 40°38' W 074°08'0 0.0
2017-Apr-23 10:53N 40°38' W 074°08'0 0.0
2017-Apr-23 08:34N 40°38' W 074°08'0 0.0
2017-Apr-23 08:19N 40°38' W 074°08'0 0.0
2017-Apr-23 07:57N 40°38' W 074°08'0 0.0
2017-Apr-23 07:30N 40°38' W 074°08'0 0.0
2017-Apr-23 07:00N 40°38' W 074°08'0 0.0
2017-Apr-23 06:23N 40°38' W 074°08'0 0.0
2017-Apr-23 06:00N 40°38' W 074°08'0 0.0
2017-Apr-23 05:26N 40°38' W 074°08'0 0.0
2017-Apr-23 05:00N 40°38' W 074°08'0 0.0
2017-Apr-23 04:30N 40°38' W 074°08'0 0.0
2017-Apr-23 03:58N 40°38' W 074°08'0 0.0
2017-Apr-23 03:29N 40°38' W 074°08'0 0.0
2017-Apr-23 03:00N 40°38' W 074°08'0 0.0
2017-Apr-23 02:30N 40°38' W 074°08'0 0.0
2017-Apr-23 01:59N 40°38' W 074°08'0 0.0
2017-Apr-23 01:30N 40°38' W 074°08'0 0.0
2017-Apr-23 00:59N 40°38' W 074°08'0 0.0
2017-Apr-23 00:26N 40°38' W 074°08'0 0.0
2017-Apr-22 23:59N 40°38' W 074°08'0 0.0
2017-Apr-22 23:27N 40°38' W 074°08'0 0.0
2017-Apr-22 23:00N 40°38' W 074°08'0 0.0
2017-Apr-22 22:30N 40°38' W 074°08'0 0.0
2017-Apr-22 22:00N 40°38' W 074°08'0 0.0
2017-Apr-22 21:30N 40°38' W 074°08'0 0.0
2017-Apr-22 20:59N 40°38' W 074°08'0 0.0
2017-Apr-22 20:30N 40°38' W 074°08'0 0.0
2017-Apr-22 19:59N 40°38' W 074°08'0 0.0
2017-Apr-22 19:30N 40°38' W 074°08'0 0.0
2017-Apr-22 19:00N 40°38' W 074°08'1 1.8
2017-Apr-22 18:30N 40°39' W 074°09'3 6.2
2017-Apr-22 18:00N 40°42' W 074°08'0 0.2
2017-Apr-22 17:30N 40°42' W 074°08'1 1.7
2017-Apr-22 17:00N 40°41' W 074°08'2 4.5
2017-Apr-22 16:30N 40°39' W 074°07'3 6.3
2017-Apr-22 16:01N 40°38' W 074°03'2 3.2
2017-Apr-22 15:30N 40°39' W 074°05'2 4.3
2017-Apr-22 15:00N 40°38' W 074°08'0 0.0
2017-Apr-22 14:30N 40°38' W 074°08'0 0.0
2017-Apr-22 13:30N 40°38' W 074°08'0 0.0
2017-Apr-22 13:00N 40°38' W 074°08'0 0.0
2017-Apr-22 12:30N 40°38' W 074°08'0 0.0
2017-Apr-22 12:00N 40°38' W 074°08'0 0.0
2017-Apr-22 11:30N 40°38' W 074°08'0 0.0
2017-Apr-22 11:00N 40°38' W 074°08'0 0.0
2017-Apr-22 10:30N 40°38' W 074°08'0 0.0
2017-Apr-22 10:00N 40°38' W 074°08'0 0.0
2017-Apr-22 09:18N 40°38' W 074°08'0 0.0
2017-Apr-22 08:59N 40°38' W 074°08'0 0.0
2017-Apr-22 08:28N 40°38' W 074°08'0 0.0
2017-Apr-22 08:00N 40°38' W 074°08'0 0.0
2017-Apr-22 07:07N 40°38' W 074°08'0 0.0
2017-Apr-22 06:50N 40°38' W 074°08'0 0.0
2017-Apr-22 06:26N 40°38' W 074°08'0 0.0
2017-Apr-22 06:00N 40°38' W 074°08'0 0.0
2017-Apr-22 05:30N 40°38' W 074°08'0 0.0
2017-Apr-22 04:59N 40°38' W 074°08'0 0.0
2017-Apr-22 04:30N 40°38' W 074°08'0 0.0
2017-Apr-22 04:00N 40°38' W 074°08'0 0.0
2017-Apr-22 03:30N 40°38' W 074°08'0 0.0
2017-Apr-22 02:59N 40°38' W 074°08'0 0.0
2017-Apr-22 02:30N 40°38' W 074°08'0 0.0
2017-Apr-22 02:00N 40°38' W 074°08'0 0.0
2017-Apr-22 01:30N 40°38' W 074°08'0 0.0
2017-Apr-22 01:00N 40°38' W 074°08'0 0.0
2017-Apr-22 00:30N 40°38' W 074°08'0 0.0
2017-Apr-22 00:00N 40°38' W 074°08'0 0.0
2017-Apr-21 23:30N 40°38' W 074°08'0 0.0
2017-Apr-21 22:58N 40°38' W 074°08'0 0.0
2017-Apr-21 22:30N 40°38' W 074°08'0 0.0
2017-Apr-21 22:00N 40°38' W 074°08'0 0.0
2017-Apr-21 21:30N 40°38' W 074°08'0 0.0
2017-Apr-21 21:00N 40°38' W 074°08'0 0.0
2017-Apr-21 20:29N 40°38' W 074°08'0 0.0
2017-Apr-21 20:01N 40°38' W 074°08'0 0.0
2017-Apr-21 19:30N 40°38' W 074°08'0 0.0
2017-Apr-21 19:00N 40°38' W 074°08'0 0.0
2017-Apr-21 18:30N 40°38' W 074°08'0 0.0
2017-Apr-21 18:00N 40°38' W 074°08'0 0.0
2017-Apr-21 17:23N 40°38' W 074°08'0 0.0
2017-Apr-21 17:01N 40°38' W 074°08'0 0.0
2017-Apr-21 16:30N 40°38' W 074°08'0 0.0
2017-Apr-21 16:00N 40°38' W 074°08'0 0.0
2017-Apr-21 15:26N 40°38' W 074°08'0 0.0
2017-Apr-21 15:00N 40°38' W 074°08'0 0.0
2017-Apr-21 14:30N 40°38' W 074°08'0 0.0
2017-Apr-21 13:30N 40°38' W 074°08'0 0.0
2017-Apr-21 13:00N 40°38' W 074°08'0 0.0
2017-Apr-21 12:29N 40°38' W 074°08'0 0.0
2017-Apr-21 11:59N 40°38' W 074°08'0 0.0
2017-Apr-21 11:27N 40°38' W 074°08'0 0.0
2017-Apr-21 11:00N 40°38' W 074°08'0 0.0
2017-Apr-21 10:29N 40°38' W 074°08'0 0.0
2017-Apr-21 10:00N 40°38' W 074°08'0 0.0
2017-Apr-21 09:30N 40°38' W 074°08'0 0.0
2017-Apr-21 09:00N 40°38' W 074°08'0 0.0
2017-Apr-21 08:30N 40°38' W 074°08'0 0.0
2017-Apr-21 07:51N 40°38' W 074°08'0 0.0
2017-Apr-21 07:26N 40°38' W 074°08'0 0.0
2017-Apr-21 06:58N 40°38' W 074°08'0 0.0
2017-Apr-21 06:30N 40°38' W 074°08'0 0.0
2017-Apr-21 05:58N 40°38' W 074°08'0 0.0
2017-Apr-21 05:30N 40°38' W 074°08'0 0.0
2017-Apr-21 05:00N 40°38' W 074°08'0 0.0
2017-Apr-21 04:29N 40°38' W 074°08'0 0.0
2017-Apr-21 03:59N 40°38' W 074°08'0 0.0
2017-Apr-21 03:30N 40°38' W 074°08'0 0.0
2017-Apr-21 02:55N 40°38' W 074°08'0 0.0
2017-Apr-21 02:25N 40°38' W 074°08'0 0.0
2017-Apr-21 01:59N 40°38' W 074°08'0 0.0
2017-Apr-21 01:29N 40°38' W 074°08'0 0.0
2017-Apr-21 00:56N 40°38' W 074°08'1 1.3
2017-Apr-21 00:31N 40°39' W 074°09'3 5.0
2017-Apr-21 00:01N 40°41' W 074°08'0 0.7
2017-Apr-20 23:30N 40°41' W 074°09'2 3.3
2017-Apr-20 23:00N 40°39' W 074°09'2 3.8
2017-Apr-20 22:30N 40°39' W 074°06'2 3.5
2017-Apr-20 22:00N 40°39' W 074°04'1 2.7
2017-Apr-20 21:31N 40°40' W 074°03'1 2.5
2017-Apr-20 21:01N 40°41' W 074°04'1 2.9
2017-Apr-20 20:31N 40°40' W 074°04'3 5.7
2017-Apr-20 19:59N 40°38' W 074°08'0 0.0
2017-Apr-20 19:30N 40°38' W 074°08'0 0.0
2017-Apr-20 19:00N 40°38' W 074°08'0 0.0
2017-Apr-20 18:30N 40°38' W 074°08'0 0.0
2017-Apr-20 18:01N 40°38' W 074°08'0 0.0
2017-Apr-20 17:29N 40°38' W 074°08'0 0.0
2017-Apr-20 17:00N 40°38' W 074°08'0 0.0
2017-Apr-20 16:30N 40°38' W 074°08'0 0.0
2017-Apr-20 16:00N 40°38' W 074°08'0 0.0
2017-Apr-20 15:30N 40°38' W 074°08'0 0.0
2017-Apr-20 14:31N 40°38' W 074°08'0 0.0
2017-Apr-20 14:12N 40°38' W 074°08'0 0.0
2017-Apr-20 13:24N 40°38' W 074°08'0 0.0
2017-Apr-20 13:00N 40°38' W 074°08'0 0.0
2017-Apr-20 12:30N 40°38' W 074°08'0 0.0
2017-Apr-20 12:00N 40°38' W 074°08'0 0.0
2017-Apr-20 11:30N 40°38' W 074°08'0 0.0
2017-Apr-20 11:00N 40°38' W 074°08'0 0.0
2017-Apr-20 10:30N 40°38' W 074°08'0 0.0
2017-Apr-20 10:00N 40°38' W 074°08'0 0.0
2017-Apr-20 09:30N 40°38' W 074°08'0 0.0
2017-Apr-20 09:00N 40°38' W 074°08'0 0.0
2017-Apr-20 08:29N 40°38' W 074°08'0 0.0
2017-Apr-20 08:00N 40°38' W 074°08'0 0.0
2017-Apr-20 07:29N 40°38' W 074°08'0 0.0
2017-Apr-20 07:00N 40°38' W 074°08'0 0.0
2017-Apr-20 06:30N 40°38' W 074°08'0 0.0
2017-Apr-20 06:00N 40°38' W 074°08'0 0.0
2017-Apr-20 05:29N 40°38' W 074°08'1 0.8
2017-Apr-20 04:53N 40°38' W 074°08'1 0.1
2017-Apr-19 20:02N 40°38' W 074°08'0 0.0
2017-Apr-19 20:00N 40°38' W 074°08'0 0.0
2017-Apr-19 19:30N 40°38' W 074°08'0 0.0
2017-Apr-19 17:54N 40°38' W 074°08'0 0.0
2017-Apr-19 17:29N 40°38' W 074°08'0 0.0
2017-Apr-19 17:00N 40°38' W 074°08'0 0.0
2017-Apr-19 16:30N 40°38' W 074°08'0 0.0
2017-Apr-19 15:53N 40°38' W 074°08'0 0.0
2017-Apr-19 15:30N 40°38' W 074°08'0 0.0
2017-Apr-19 14:58N 40°38' W 074°08'0 0.0
2017-Apr-19 14:30N 40°38' W 074°08'0 0.0
2017-Apr-19 13:30N 40°38' W 074°08'0 0.0
2017-Apr-19 13:00N 40°38' W 074°08'0 0.0
2017-Apr-19 12:30N 40°38' W 074°08'0 0.0
2017-Apr-19 12:00N 40°38' W 074°08'0 0.0
2017-Apr-19 11:26N 40°38' W 074°08'0 0.0
2017-Apr-19 10:59N 40°38' W 074°08'0 0.0
2017-Apr-19 10:28N 40°38' W 074°08'0 0.0
2017-Apr-19 10:00N 40°38' W 074°08'0 0.0
2017-Apr-19 08:23N 40°38' W 074°08'0 0.0
2017-Apr-19 08:00N 40°38' W 074°08'0 0.0
2017-Apr-19 07:30N 40°38' W 074°08'0 0.0
2017-Apr-19 06:56N 40°38' W 074°08'0 0.0
2017-Apr-19 06:26N 40°38' W 074°08'0 0.0
2017-Apr-19 05:38N 40°38' W 074°08'0 0.0
2017-Apr-19 05:29N 40°38' W 074°08'0 0.0
2017-Apr-19 05:00N 40°38' W 074°08'1 1.4
2017-Apr-19 04:30N 40°39' W 074°07'0 0.0
2017-Apr-19 04:00N 40°39' W 074°07'0 0.9
2017-Apr-19 03:30N 40°39' W 074°06'1 2.0
2017-Apr-19 02:58N 40°38' W 074°08'0 0.0
2017-Apr-19 02:30N 40°38' W 074°08'3 6.9
2017-Apr-19 02:00N 40°42' W 074°09'0 0.1
2017-Apr-19 01:30N 40°42' W 074°09'1 2.2
2017-Apr-19 01:00N 40°41' W 074°08'2 4.5
2017-Apr-19 00:30N 40°39' W 074°09'1 2.2
2017-Apr-19 00:00N 40°38' W 074°08'0 0.0
2017-Apr-18 23:30N 40°38' W 074°08'1 2.1
2017-Apr-18 22:58N 40°39' W 074°09'3 5.5
2017-Apr-18 22:30N 40°41' W 074°08'1 1.6
2017-Apr-18 22:00N 40°42' W 074°09'0 0.1
2017-Apr-18 21:30N 40°42' W 074°09'0 0.1
2017-Apr-18 21:00N 40°42' W 074°09'0 0.3
2017-Apr-18 20:30N 40°42' W 074°08'3 6.6
2017-Apr-18 20:00N 40°38' W 074°08'0 0.0
2017-Apr-18 19:20N 40°38' W 074°08'0 0.0
2017-Apr-18 18:59N 40°38' W 074°08'0 0.1
2017-Apr-18 18:30N 40°38' W 074°08'0 0.0
2017-Apr-18 18:00N 40°38' W 074°08'0 0.0
2017-Apr-18 17:30N 40°38' W 074°08'0 0.0
2017-Apr-18 17:00N 40°38' W 074°08'0 0.0
2017-Apr-18 16:30N 40°38' W 074°08'0 0.0
2017-Apr-18 16:00N 40°38' W 074°08'0 0.0
2017-Apr-18 15:30N 40°38' W 074°08'0 0.0
2017-Apr-18 15:00N 40°38' W 074°08'0 0.0
2017-Apr-18 14:30N 40°38' W 074°08'7 5.8
2017-Apr-18 13:18N 40°33' W 074°14'1 4.2
2017-Apr-18 13:00N 40°32' W 074°15'0 0.0
2017-Apr-18 12:30N 40°32' W 074°15'1 1.4
2017-Apr-18 11:34N 40°33' W 074°14'3 9.2
2017-Apr-18 11:12N 40°37' W 074°12'210.9
2017-Apr-18 11:00N 40°39' W 074°11'4 7.3
2017-Apr-18 10:29N 40°41' W 074°08'0 0.8
2017-Apr-18 10:00N 40°41' W 074°08'3 5.2
2017-Apr-18 09:30N 40°39' W 074°09'2 3.5
2017-Apr-18 09:00N 40°39' W 074°06'3 5.2
2017-Apr-18 08:30N 40°38' W 074°03'4 7.1
2017-Apr-18 08:00N 40°38' W 074°08'0 0.0
2017-Apr-18 07:30N 40°38' W 074°08'0 0.0
2017-Apr-18 07:00N 40°38' W 074°08'0 0.0
2017-Apr-18 06:30N 40°38' W 074°08'0 0.0
2017-Apr-18 06:00N 40°38' W 074°08'1 2.0
2017-Apr-18 05:27N 40°39' W 074°09'2 5.1
2017-Apr-18 05:00N 40°41' W 074°08'1 1.9
2017-Apr-18 04:30N 40°42' W 074°09'0 0.1
2017-Apr-18 04:00N 40°42' W 074°09'0 0.2
2017-Apr-18 03:30N 40°42' W 074°09'0 0.0
2017-Apr-18 03:00N 40°42' W 074°09'0 0.0
2017-Apr-18 02:30N 40°42' W 074°09'0 0.0
2017-Apr-18 02:00N 40°42' W 074°09'4 7.6
2017-Apr-18 01:30N 40°39' W 074°11'1 2.0
2017-Apr-18 01:00N 40°38' W 074°12'1 2.7
2017-Apr-18 00:30N 40°39' W 074°11'2 4.6
2017-Apr-17 23:58N 40°38' W 074°08'0 0.0
2017-Apr-17 23:30N 40°38' W 074°08'0 0.0
2017-Apr-17 23:00N 40°38' W 074°08'0 0.1
2017-Apr-17 22:30N 40°38' W 074°08'0 0.0
2017-Apr-17 22:00N 40°38' W 074°08'0 0.0
2017-Apr-17 21:30N 40°38' W 074°08'0 0.0
2017-Apr-17 20:58N 40°38' W 074°08'0 0.0
2017-Apr-17 20:30N 40°38' W 074°08'0 0.0
2017-Apr-17 20:00N 40°38' W 074°08'0 0.0
2017-Apr-17 19:30N 40°38' W 074°08'0 0.7
2017-Apr-17 19:00N 40°39' W 074°07'0 0.4
2017-Apr-17 18:30N 40°39' W 074°07'0 0.1
2017-Apr-17 18:00N 40°39' W 074°07'0 0.3
2017-Apr-17 17:30N 40°39' W 074°07'1 1.2
2017-Apr-17 16:59N 40°38' W 074°08'0 0.0
2017-Apr-17 16:29N 40°38' W 074°08'0 0.0
2017-Apr-17 15:58N 40°38' W 074°08'0 0.0
2017-Apr-17 15:09N 40°38' W 074°08'0 0.0
2017-Apr-17 15:00N 40°38' W 074°08'0 0.0
2017-Apr-17 13:59N 40°38' W 074°08'0 0.0
2017-Apr-17 13:30N 40°38' W 074°08'0 0.0
2017-Apr-17 13:00N 40°38' W 074°08'0 0.0
2017-Apr-17 12:30N 40°38' W 074°08'0 0.0
2017-Apr-17 11:59N 40°38' W 074°08'3 5.4
2017-Apr-17 11:30N 40°41' W 074°08'1 2.0
2017-Apr-17 11:00N 40°42' W 074°09'1 2.7
2017-Apr-17 10:30N 40°41' W 074°08'2 4.2
2017-Apr-17 10:00N 40°39' W 074°08'0 0.3
2017-Apr-17 09:29N 40°38' W 074°08'0 0.0
2017-Apr-17 08:59N 40°38' W 074°08'0 0.0
2017-Apr-17 08:29N 40°38' W 074°08'0 0.0
2017-Apr-17 07:59N 40°38' W 074°08'0 0.0
2017-Apr-17 07:26N 40°38' W 074°08'0 0.0
2017-Apr-17 06:56N 40°38' W 074°08'0 0.0
2017-Apr-17 05:59N 40°38' W 074°08'0 0.0
2017-Apr-17 05:29N 40°38' W 074°08'0 0.0
2017-Apr-17 04:56N 40°38' W 074°08'0 0.0
2017-Apr-17 04:23N 40°38' W 074°08'0 0.0
2017-Apr-17 03:56N 40°38' W 074°08'0 0.0
2017-Apr-17 01:47N 40°38' W 074°08'0 0.0
2017-Apr-17 01:29N 40°38' W 074°08'0 0.0
2017-Apr-17 00:53N 40°38' W 074°08'0 0.0
2017-Apr-17 00:26N 40°38' W 074°08'0 0.0
2017-Apr-16 23:59N 40°38' W 074°08'0 0.0
2017-Apr-16 23:29N 40°38' W 074°08'0 0.0
2017-Apr-16 22:50N 40°38' W 074°08'0 0.0
2017-Apr-16 22:23N 40°38' W 074°08'0 0.0
2017-Apr-16 21:53N 40°38' W 074°08'0 0.0
2017-Apr-16 21:26N 40°38' W 074°08'0 0.0
2017-Apr-16 20:59N 40°38' W 074°08'0 0.0
2017-Apr-16 20:25N 40°38' W 074°08'0 0.1
2017-Apr-16 20:00N 40°38' W 074°08'0 0.1
2017-Apr-16 19:30N 40°38' W 074°08'0 0.0
2017-Apr-16 18:59N 40°38' W 074°08'0 0.0
2017-Apr-16 18:21N 40°38' W 074°08'0 0.0
2017-Apr-16 17:49N 40°38' W 074°08'0 0.0
2017-Apr-16 17:19N 40°38' W 074°08'0 0.0
2017-Apr-16 13:55N 40°38' W 074°08'0 0.0
2017-Apr-16 13:28N 40°38' W 074°08'0 0.0
2017-Apr-16 12:52N 40°38' W 074°08'0 0.0
2017-Apr-16 12:28N 40°38' W 074°08'0 0.0
2017-Apr-16 11:19N 40°38' W 074°08'0 0.0
2017-Apr-16 10:58N 40°38' W 074°08'0 0.0
2017-Apr-16 10:25N 40°38' W 074°08'0 0.0
2017-Apr-16 09:49N 40°38' W 074°08'0 0.0
2017-Apr-16 09:28N 40°38' W 074°08'0 0.0
2017-Apr-16 08:46N 40°38' W 074°08'0 0.0
2017-Apr-16 08:28N 40°38' W 074°08'0 0.0
2017-Apr-16 07:58N 40°38' W 074°08'0 0.0
2017-Apr-16 07:28N 40°38' W 074°08'0 0.0
2017-Apr-16 06:58N 40°38' W 074°08'0 0.0
2017-Apr-16 06:28N 40°38' W 074°08'0 0.0
2017-Apr-16 05:34N 40°38' W 074°08'0 0.0
2017-Apr-16 05:19N 40°38' W 074°08'0 0.0
2017-Apr-16 04:58N 40°38' W 074°08'0 0.0
2017-Apr-16 04:28N 40°38' W 074°08'0 0.0
2017-Apr-16 03:52N 40°38' W 074°08'0 0.0
2017-Apr-16 02:55N 40°38' W 074°08'0 0.0
2017-Apr-16 02:10N 40°38' W 074°08'0 0.0
2017-Apr-16 01:46N 40°38' W 074°08'0 0.0
2017-Apr-16 01:25N 40°38' W 074°08'0 0.1
2017-Apr-16 00:58N 40°38' W 074°08'0 0.0
2017-Apr-16 00:25N 40°38' W 074°08'0 0.0
2017-Apr-15 23:58N 40°38' W 074°08'0 0.0
2017-Apr-15 22:31N 40°38' W 074°08'0 0.0
2017-Apr-15 21:36N 40°38' W 074°08'0 0.0
2017-Apr-15 21:06N 40°38' W 074°08'0 0.0
2017-Apr-15 20:54N 40°38' W 074°08'0 0.0
2017-Apr-15 20:30N 40°38' W 074°08'0 0.0
2017-Apr-15 20:00N 40°38' W 074°08'0 0.0
2017-Apr-15 19:30N 40°38' W 074°08'1 2.1
2017-Apr-15 19:00N 40°39' W 074°07'3 5.2
2017-Apr-15 18:30N 40°41' W 074°04'0 0.0
2017-Apr-15 18:00N 40°41' W 074°04'1 3.0
2017-Apr-15 17:30N 40°40' W 074°03'2 4.3
2017-Apr-15 17:00N 40°39' W 074°06'  

Dump ship's entire track history